Latest Weather Observations for Cape Otway

IDV60801

Issued at 8:05 pm EDT Thursday 23 October 2014 (issued every 30 minutes, with the page automatically refreshed every 10 minutes)

About weather observations | Map of weather stations | Latest weather observations for VIC | Other Formats
Station Details ID: 090015 Name: CAPE OTWAY LIGHTHOUSE Lat: -38.86 Lon: 143.51 Height: 82.0 m
Data from the previous 72 hours. | See also: Recent months at Cape Otway
Date/Time
EDT
Temp
°C
App
Temp
°C
Dew
Point
Rel
Hum
%
Delta-T
°C
Wind Press
QNH
hPa
Press
MSL
hPa
Rain
since 9 am
mm
Dir
 
Spd
km/h
Gust
km/h
Spd
kts
Gust
kts
23/08:00pm 14.2 8.9 12.6 90 0.9 E 32 52 17 28 1016.4 - 0.0
23/07:49pm 14.2 8.7 12.6 90 0.9 E 33 54 18 29 1016.4 - 0.0
23/07:47pm 14.2 8.7 12.6 90 0.9 E 33 54 18 29 1016.4 - 0.0
23/07:30pm 14.3 8.9 12.7 90 0.9 E 33 46 18 25 1016.5 - 0.0
23/07:09pm 14.3 8.5 12.7 90 0.9 E 35 54 19 29 1016.5 - 0.0
23/07:07pm 14.3 8.5 12.7 90 0.9 E 35 54 19 29 1016.5 - 0.0
23/07:00pm 14.3 8.9 12.7 90 0.9 E 33 48 18 26 1016.5 - 0.0
23/06:38pm 14.6 9.3 12.6 88 1.1 E 32 52 17 28 1016.6 - 0.0
23/06:30pm 14.6 9.2 12.8 89 1.0 E 33 48 18 26 1016.7 - 0.0
23/06:11pm 14.5 9.3 12.9 90 0.9 E 32 50 17 27 1016.7 - 0.0
23/06:09pm 14.5 9.3 12.9 90 0.9 E 32 50 17 27 1016.7 - 0.0
23/06:00pm 14.5 9.1 12.9 90 0.9 E 33 48 18 26 1016.8 1016.8 0.0
23/05:30pm 14.4 9.0 12.8 90 0.9 E 33 48 18 26 1017.1 - 0.0
23/05:00pm 14.4 9.5 12.6 89 1.0 E 30 41 16 22 1016.9 - 0.0
23/04:31pm 14.7 9.7 12.3 85 1.3 E 30 48 16 26 1017.2 - 0.0
23/04:30pm 14.7 9.7 12.3 85 1.3 E 30 48 16 26 1017.2 - 0.0
23/04:29pm 14.7 9.7 12.3 85 1.3 E 30 48 16 26 1017.2 - 0.0
23/04:00pm 15.3 10.2 12.0 81 1.8 E 30 44 16 24 1017.3 - 0.0
23/03:30pm 16.6 10.8 11.6 72 2.7 ENE 33 52 18 28 1017.4 - 0.0
23/03:28pm 16.6 10.8 11.6 72 2.7 ENE 33 52 18 28 1017.4 - 0.0
23/03:26pm 16.6 10.8 11.6 72 2.7 ENE 33 52 18 28 1017.4 - 0.0
23/03:00pm 15.1 11.2 12.0 82 1.7 E 24 39 13 21 1017.7 1017.8 0.0
23/02:30pm 15.2 12.2 12.1 82 1.7 E 19 35 10 19 1018.4 - 0.0
23/02:00pm 14.8 12.1 11.8 82 1.6 E 17 26 9 14 1018.8 - 0.0
23/01:30pm 14.8 12.5 11.6 81 1.7 E 15 26 8 14 1019.1 - 0.0
23/01:00pm 14.8 12.0 11.4 80 1.8 E 17 26 9 14 1019.1 - 0.0
23/12:30pm 14.7 11.5 11.1 79 1.9 E 19 24 10 13 1019.4 - 0.0
23/12:00pm 14.7 11.7 10.7 77 2.1 E 17 22 9 12 1019.9 1019.9 0.0
23/11:30am 14.8 12.3 11.0 78 2.0 ESE 15 19 8 10 1020.4 - 0.0
23/11:00am 14.3 11.8 10.9 80 1.8 ESE 15 20 8 11 1020.5 - 0.0
23/10:30am 13.8 10.9 11.0 83 1.5 ESE 17 22 9 12 1020.8 - 0.0
23/10:00am 13.7 11.9 10.8 83 1.5 SE 11 19 6 10 1020.9 - 0.0
23/09:30am 13.5 12.0 10.6 82 1.5 S 9 15 5 8 1020.9 - 0.0
23/09:00am 13.3 11.9 10.8 85 1.3 SW 9 15 5 8 1021.1 1021.1 0.0
23/08:30am 13.1 12.0 10.6 85 1.3 S 7 19 4 10 1021.1 - 0.0
23/08:00am 13.1 10.8 10.4 84 1.4 SSE 13 19 7 10 1021.0 - 0.0
23/07:30am 13.1 11.2 10.4 84 1.4 SE 11 19 6 10 1020.7 - 0.0
23/07:00am 13.2 11.7 10.7 85 1.3 SSE 9 19 5 10 1020.5 - 0.0
23/06:30am 13.0 11.9 10.5 85 1.3 SSE 7 11 4 6 1020.4 - 0.0
23/06:00am 13.1 11.6 10.6 85 1.3 WSW 9 17 5 9 1020.2 1020.2 0.0
23/05:30am 13.2 10.7 10.9 86 1.2 SW 15 20 8 11 1020.0 - 0.0
23/05:00am 13.5 12.7 11.2 86 1.2 SW 6 15 3 8 1019.9 - 0.0
23/04:30am 13.3 12.3 11.0 86 1.2 SW 7 13 4 7 1019.8 - 0.0
23/04:00am 13.5 12.6 11.2 86 1.2 NW 7 11 4 6 1019.7 - 0.0
23/03:30am 13.3 11.6 11.2 87 1.1 SW 11 17 6 9 1019.7 - 0.0
23/03:00am 13.5 11.8 11.2 86 1.2 SW 11 17 6 9 1019.9 1019.9 0.0
23/02:30am 13.4 11.3 11.1 86 1.2 SW 13 19 7 10 1019.9 - 0.0
23/02:00am 13.3 11.6 11.2 87 1.1 SW 11 17 6 9 1019.9 - 0.0
23/01:30am 13.3 12.1 11.6 89 0.9 WSW 9 17 5 9 1020.2 - 0.0
23/01:00am 13.3 11.8 11.8 91 0.8 WSW 11 20 6 11 1020.4 - 0.0
23/12:30am 13.4 11.9 11.9 91 0.8 SW 11 19 6 10 1020.3 - 0.0
23/12:00am 13.4 11.7 12.3 93 0.6 SW 13 19 7 10 1020.2 1020.2 0.0
 
Date/Time
EDT
Temp
°C
App
Temp
°C
Dew
Point
Rel
Hum
%
Delta-T
°C
Wind Press
QNH
hPa
Press
MSL
hPa
Rain
since 9 am
mm
Dir
 
Spd
km/h
Gust
km/h
Spd
kts
Gust
kts
22/11:30pm 13.4 11.3 12.3 93 0.6 SSW 15 20 8 11 1019.9 - 0.0
22/11:00pm 13.5 11.8 12.4 93 0.6 SSW 13 20 7 11 1020.0 - 0.0
22/10:30pm 13.6 11.9 12.5 93 0.6 SSW 13 20 7 11 1019.8 - 0.0
22/10:00pm 13.6 12.3 12.5 93 0.6 SSW 11 17 6 9 1019.8 - 0.0
22/09:30pm 13.6 11.5 12.5 93 0.6 SSW 15 22 8 12 1020.0 - 0.0
22/09:00pm 13.9 11.5 12.6 92 0.7 SSW 17 22 9 12 1019.8 1019.8 0.0
22/08:30pm 13.9 10.9 12.6 92 0.7 SW 20 26 11 14 1019.3 - 0.0
22/08:00pm 14.1 10.7 12.6 91 0.8 SW 22 32 12 17 1018.8 - 0.0
22/07:30pm 14.5 11.6 12.9 90 0.9 WSW 20 30 11 16 1018.2 - 0.0
22/07:00pm 14.8 11.6 13.2 90 0.9 W 22 33 12 18 1017.7 - 0.0
22/06:30pm 15.9 12.8 13.4 85 1.4 WNW 22 30 12 16 1016.8 - 0.0
22/06:00pm 16.7 14.0 13.5 81 1.8 WNW 20 28 11 15 1016.5 1016.5 0.0
22/05:30pm 16.7 14.4 13.1 79 2.0 WNW 17 22 9 12 1016.8 - 0.0
22/05:00pm 18.4 14.8 13.1 71 3.0 W 24 32 13 17 1016.8 - 0.0
22/04:30pm 22.1 19.1 12.6 55 5.4 WNW 20 26 11 14 1016.3 - 0.0
22/04:00pm 24.2 21.4 11.4 44 7.2 WNW 17 26 9 14 1016.0 - 0.0
22/03:30pm 22.5 21.2 11.2 48 6.3 WNW 9 15 5 8 1016.2 - 0.0
22/03:00pm 23.7 23.1 11.7 47 6.8 W 6 19 3 10 1016.2 1016.2 0.0
22/02:30pm 24.5 24.5 9.7 39 8.1 CALM 0 0 0 0 1016.4 - 0.0
22/02:00pm 24.9 25.0 10.3 39 8.1 CALM 0 6 0 3 1016.5 - 0.0
22/01:30pm 23.2 23.9 12.3 50 6.2 CALM 0 6 0 3 1016.3 - 0.0
22/01:00pm 24.8 24.9 11.4 43 7.6 E 2 9 1 5 1016.0 - 0.0
22/12:30pm 24.5 24.1 11.2 43 7.5 E 4 9 2 5 1016.6 - 0.0
22/12:00pm 24.1 23.8 11.3 44 7.2 ESE 4 9 2 5 1016.8 1016.9 0.0
22/11:30am 24.3 23.4 10.7 42 7.6 E 6 11 3 6 1017.1 - 0.0
22/11:00am 23.5 23.0 10.7 44 7.1 E 4 9 2 5 1017.7 - 0.0
22/10:30am 22.5 21.2 9.8 44 6.9 ESE 7 11 4 6 1017.7 - 0.0
22/10:00am 22.8 22.4 11.1 47 6.5 ESE 4 7 2 4 1018.1 - 0.0
22/09:30am 22.4 22.1 11.5 50 6.1 ENE 4 9 2 5 1018.5 - 0.0
22/09:00am 21.1 22.1 13.3 61 4.5 CALM 0 0 0 0 1018.3 1018.3 0.0
22/08:30am 20.6 21.2 13.1 62 4.3 ESE 2 9 1 5 1018.2 - 0.0
22/08:00am 18.3 16.6 11.3 63 3.8 E 11 15 6 8 1017.7 - 0.0
22/07:30am 16.1 14.0 11.3 73 2.6 ENE 13 17 7 9 1017.7 - 0.0
22/07:00am 15.9 15.2 10.2 69 3.0 E 4 11 2 6 1018.1 - 0.0
22/06:30am 15.1 12.7 8.8 66 3.2 NNW 11 15 6 8 1017.6 - 0.0
22/06:00am 13.5 11.8 9.8 78 1.9 E 9 13 5 7 1017.3 1017.3 0.0
22/05:30am 14.9 12.1 10.1 73 2.5 NE 15 20 8 11 1017.2 - 0.0
22/05:00am 13.8 11.5 10.6 81 1.7 ENE 13 19 7 10 1017.5 - 0.0
22/04:30am 13.7 11.2 11.1 84 1.4 NE 15 20 8 11 1017.9 - 0.0
22/04:00am 13.2 11.5 11.1 87 1.1 ENE 11 15 6 8 1018.3 - 0.0
22/03:30am 13.6 11.2 11.3 86 1.2 ENE 15 19 8 10 1018.1 - 0.0
22/03:00am 13.5 11.2 11.6 88 1.0 E 15 19 8 10 1018.7 1018.7 0.0
22/02:30am 13.9 11.1 11.3 84 1.4 ENE 17 22 9 12 1018.9 - 0.0
22/02:00am 14.5 11.2 10.9 79 1.9 NE 19 26 10 14 1019.4 - 0.0
22/01:30am 15.0 10.7 10.9 76 2.2 NE 24 32 13 17 1019.7 - 0.0
22/01:00am 15.0 10.4 11.1 77 2.1 NE 26 32 14 17 1020.2 - 0.0
22/12:30am 14.7 10.2 11.5 81 1.7 NE 26 35 14 19 1020.5 - 0.0
22/12:00am 14.4 10.0 11.8 84 1.4 ENE 26 35 14 19 1020.8 1020.8 0.0
 
Date/Time
EDT
Temp
°C
App
Temp
°C
Dew
Point
Rel
Hum
%
Delta-T
°C
Wind Press
QNH
hPa
Press
MSL
hPa
Rain
since 9 am
mm
Dir
 
Spd
km/h
Gust
km/h
Spd
kts
Gust
kts
21/11:30pm 14.5 9.3 11.7 83 1.5 ENE 30 39 16 21 1021.1 - 0.0
21/11:00pm 14.5 9.3 11.7 83 1.5 NE 30 39 16 21 1021.6 - 0.0
21/10:30pm 14.8 9.6 11.6 81 1.7 ENE 30 44 16 24 1021.8 - 0.0
21/10:00pm 14.8 9.2 11.6 81 1.7 ENE 32 43 17 23 1022.1 - 0.0
21/09:30pm 14.7 9.2 11.7 82 1.6 ENE 32 44 17 24 1022.1 - 0.0
21/09:00pm 14.8 9.3 11.8 82 1.6 ENE 32 44 17 24 1022.2 1022.2 0.0
21/08:30pm 14.9 9.7 11.7 81 1.7 ENE 30 41 16 22 1022.2 - 0.0
21/08:00pm 15.1 9.9 11.6 79 1.9 ENE 30 41 16 22 1022.3 - 0.0
21/07:30pm 15.3 10.1 11.6 78 2.0 ENE 30 43 16 23 1022.5 - 0.0
21/07:00pm 15.4 9.8 11.5 77 2.1 ENE 32 43 17 23 1022.3 - 0.0
21/06:30pm 15.7 10.4 11.4 75 2.3 ENE 30 44 16 24 1022.5 - 0.0
21/06:00pm 16.3 10.8 11.7 74 2.5 ENE 32 41 17 22 1022.8 1022.8 0.0
21/05:30pm 16.2 10.9 11.2 72 2.7 ENE 30 39 16 21 1022.9 - 0.0
21/05:00pm 16.8 12.2 11.2 69 3.0 ENE 26 41 14 22 1023.0 - 0.0
21/04:30pm 16.7 12.2 11.3 70 2.9 ENE 26 35 14 19 1023.3 - 0.0
21/04:00pm 16.6 11.7 11.2 70 2.9 ENE 28 35 15 19 1023.4 - 0.0
21/03:30pm 16.8 11.8 11.0 68 3.1 ENE 28 37 15 20 1023.7 - 0.0
21/03:00pm 16.5 11.5 10.9 69 3.0 ENE 28 41 15 22 1023.9 1023.9 0.0
21/02:30pm 16.3 11.1 10.4 68 3.1 ENE 28 43 15 23 1024.3 - 0.0
21/02:00pm 16.7 11.2 10.5 67 3.3 ENE 30 43 16 23 1024.6 - 0.0
21/01:30pm 16.2 10.1 9.9 66 3.3 ENE 32 44 17 24 1024.9 - 0.0
21/01:00pm 15.0 9.2 9.4 69 2.9 E 30 43 16 23 1025.2 - 0.0
21/12:30pm 14.9 9.1 9.5 70 2.8 E 30 46 16 25 1025.7 - 0.0
21/12:26pm 14.7 9.3 9.4 70 2.7 E 28 46 15 25 1025.7 - 0.0
21/12:24pm 14.7 9.3 9.4 70 2.7 E 28 46 15 25 1025.7 - 0.0
21/12:00pm 14.6 9.2 9.5 71 2.6 E 28 39 15 21 1026.1 1026.2 0.0
21/11:30am 14.4 9.3 9.3 71 2.6 E 26 37 14 20 1026.2 - 0.0
21/11:00am 14.4 10.1 9.3 71 2.6 E 22 35 12 19 1026.6 - 0.0
21/10:30am 14.3 9.5 8.8 69 2.8 E 24 37 13 20 1026.7 - 0.0
21/10:00am 14.2 8.6 8.9 70 2.7 E 28 41 15 22 1026.6 - 0.0
21/09:30am 13.7 7.0 8.3 70 2.7 E 33 48 18 26 1026.4 - 0.0
21/09:06am 13.7 8.0 8.3 70 2.7 ENE 28 46 15 25 1026.6 - 0.0
21/09:04am 13.7 8.0 8.3 70 2.7 ENE 28 46 15 25 1026.6 - 0.0
21/09:00am 13.6 7.1 8.2 70 2.7 E 32 46 17 25 1026.6 1026.7 0.0
21/08:30am 13.2 7.0 7.9 70 2.6 E 30 48 16 26 1026.5 - 0.0
21/08:01am 12.9 6.3 7.8 71 2.5 ENE 32 50 17 27 1026.0 - 0.0
21/08:00am 12.9 6.4 8.0 72 2.4 ENE 32 50 17 27 1026.0 - 0.0
21/07:45am 12.7 5.6 8.0 73 2.3 E 35 54 19 29 1025.8 - 0.0
21/07:43am 12.7 5.6 8.0 73 2.3 E 35 54 19 29 1025.8 - 0.0
21/07:30am 12.4 4.9 7.9 74 2.2 E 37 52 20 28 1025.7 - 0.0
21/07:00am 12.2 4.7 7.9 75 2.1 E 37 52 20 28 1025.3 - 0.0
21/06:30am 12.0 4.1 7.7 75 2.1 E 39 63 21 34 1025.2 - 0.0
21/06:00am 12.1 3.2 7.6 74 2.2 E 44 70 24 38 1024.9 1024.7 0.0
21/05:30am 12.1 3.1 7.3 72 2.3 E 44 67 24 36 1024.4 - 0.0
21/05:00am 12.0 2.6 7.2 72 2.3 E 46 70 25 38 1024.6 - 0.0
21/04:30am 12.1 2.3 7.1 71 2.4 E 48 69 26 37 1024.6 - 0.0
21/04:00am 12.1 3.3 7.3 72 2.3 E 43 61 23 33 1024.7 - 0.0
21/03:30am 12.1 3.1 7.3 72 2.3 E 44 69 24 37 1025.2 - 0.0
21/03:00am 12.2 2.4 7.0 70 2.5 E 48 76 26 41 1025.4 1025.6 0.0
21/02:31am 12.2 2.8 7.2 71 2.4 E 46 65 25 35 1025.8 - 0.0
21/02:30am 12.2 2.4 7.2 71 2.4 E 48 65 26 35 1025.8 - 0.0
21/02:00am 12.2 3.2 7.2 71 2.4 E 44 63 24 34 1026.2 - 0.0
21/01:30am 12.2 2.8 7.2 71 2.4 E 46 69 25 37 1026.6 - 0.0
21/01:00am 12.3 3.5 7.1 70 2.5 E 43 67 23 36 1027.2 - 0.0
21/12:37am 12.3 3.4 6.9 69 2.6 E 43 61 23 33 1027.5 - 0.0
21/12:30am 12.3 3.3 7.1 70 2.5 E 44 61 24 33 1027.5 - 0.0
21/12:00am 12.5 4.2 7.8 73 2.3 E 41 61 22 33 1027.8 1028.0 0.0
 
Date/Time
EDT
Temp
°C
App
Temp
°C
Dew
Point
Rel
Hum
%
Delta-T
°C
Wind Press
QNH
hPa
Press
MSL
hPa
Rain
since 9 am
mm
Dir
 
Spd
km/h
Gust
km/h
Spd
kts
Gust
kts
20/11:30pm 12.6 4.2 7.4 70 2.5 E 41 65 22 35 1028.0 - 0.0
20/11:00pm 12.5 3.6 7.6 72 2.4 E 44 67 24 36 1028.1 - 0.0
20/10:35pm 12.6 5.1 7.9 73 2.3 E 37 56 20 30 1028.4 - 0.0
20/10:30pm 12.5 4.5 7.6 72 2.4 E 39 54 21 29 1028.4 - 0.0
20/10:00pm 12.5 4.5 7.3 70 2.5 E 39 61 21 33 1028.3 - 0.0
20/09:30pm 12.4 4.8 7.7 73 2.3 E 37 57 20 31 1028.4 - 0.0
20/09:07pm 12.5 5.4 8.2 75 2.1 E 35 54 19 29 1028.6 - 0.0
20/09:00pm 12.3 5.8 8.0 75 2.1 E 32 50 17 27 1028.4 1028.5 0.0
20/08:30pm 12.3 5.6 8.2 76 2.0 E 33 54 18 29 1028.7 - 0.0

Other Formats:

Comma delimited format used in spreadsheet applications
http://www.bom.gov.au/fwo/IDV60801/IDV60801.94842.axf

JavaScript Object Notation format (JSON) in row-major order
http://www.bom.gov.au/fwo/IDV60801/IDV60801.94842.json